createdAt,value
2018-05-10T00:02:34.946Z,14.00
2018-05-10T00:17:34.610Z,14.93
2018-05-10T00:32:36.683Z,10.93
2018-05-10T00:47:34.889Z,12.13
2018-05-10T01:02:34.931Z,11.37
2018-05-10T01:17:34.875Z,10.20
2018-05-10T01:32:34.462Z,11.07
2018-05-10T01:47:34.235Z,10.17
2018-05-10T02:02:34.187Z,11.30
2018-05-10T02:17:34.289Z,11.00
2018-05-10T02:32:34.149Z,12.20
2018-05-10T02:47:34.629Z,12.00
2018-05-10T03:02:34.588Z,16.03
2018-05-10T03:17:35.050Z,12.60
2018-05-10T03:32:34.415Z,11.53
2018-05-10T03:47:34.905Z,14.07
2018-05-10T04:02:46.569Z,13.80
2018-05-10T04:17:35.069Z,22.23
2018-05-10T04:32:35.906Z,21.33
2018-05-10T04:47:35.425Z,19.00
2018-05-10T05:02:37.073Z,20.00
2018-05-10T05:17:34.583Z,17.43
2018-05-10T05:32:41.347Z,17.37
2018-05-10T05:47:36.354Z,20.73
2018-05-10T06:02:34.371Z,16.20
2018-05-10T06:17:34.361Z,15.17
2018-05-10T06:32:34.376Z,15.67
2018-05-10T06:47:34.777Z,10.90
2018-05-10T07:02:36.850Z,12.30
2018-05-10T07:17:34.725Z,9.10
2018-05-10T07:32:34.942Z,6.17
2018-05-10T07:47:35.290Z,5.07
2018-05-10T08:02:35.291Z,4.50
2018-05-10T08:17:35.139Z,11.27
2018-05-10T08:32:34.632Z,6.07
2018-05-10T08:47:36.570Z,4.30
2018-05-10T09:02:36.558Z,4.50
2018-05-10T09:17:34.931Z,9.67
2018-05-10T09:32:34.244Z,8.83
2018-05-10T09:47:34.741Z,10.10
2018-05-10T10:02:35.225Z,6.50
2018-05-10T10:17:34.864Z,7.60
2018-05-10T10:32:34.721Z,5.43
2018-05-10T10:47:35.094Z,10.10
2018-05-10T11:02:35.190Z,5.40
2018-05-10T11:17:34.839Z,3.97
2018-05-10T11:32:34.378Z,3.87
2018-05-10T11:47:35.270Z,3.60
2018-05-10T12:02:33.696Z,3.50
2018-05-10T12:17:34.218Z,11.07
2018-05-10T12:32:36.313Z,4.87
2018-05-10T12:47:36.572Z,7.40
2018-05-10T13:02:34.554Z,7.83
2018-05-10T13:17:34.426Z,11.90
2018-05-10T13:32:34.534Z,7.03
2018-05-10T13:47:34.752Z,7.07
2018-05-10T14:02:36.771Z,7.30
2018-05-10T14:17:35.026Z,8.40
2018-05-10T14:32:35.495Z,9.30
2018-05-10T14:47:34.299Z,9.83
2018-05-10T15:02:34.032Z,7.80
2018-05-10T15:17:35.015Z,10.30
2018-05-10T15:32:36.673Z,7.67
2018-05-10T15:47:34.567Z,10.93
2018-05-10T16:02:33.502Z,7.20
2018-05-10T16:17:34.659Z,9.60
2018-05-10T16:32:34.658Z,10.50
2018-05-10T16:47:34.850Z,5.97
2018-05-10T17:02:34.758Z,6.57
2018-05-10T17:17:35.001Z,7.10
2018-05-10T17:32:34.594Z,8.13
2018-05-10T17:47:35.294Z,13.43
2018-05-10T18:02:37.003Z,6.80
2018-05-10T18:17:35.051Z,14.13
2018-05-10T18:32:34.628Z,7.40
2018-05-10T18:47:35.002Z,6.40
2018-05-10T19:02:34.254Z,7.07
2018-05-10T19:17:34.433Z,9.83
2018-05-10T19:32:34.576Z,9.70
2018-05-10T19:47:36.905Z,8.67
2018-05-10T20:02:35.382Z,9.63
2018-05-10T20:17:36.742Z,7.00
2018-05-10T20:32:36.736Z,4.80
2018-05-10T20:47:34.762Z,5.30
2018-05-10T21:02:35.091Z,5.37
2018-05-10T21:17:34.748Z,5.80
2018-05-10T21:32:36.828Z,5.50
2018-05-10T21:47:34.199Z,11.10
2018-05-10T22:02:34.498Z,7.83
2018-05-10T22:17:34.458Z,7.87
2018-05-10T22:32:34.242Z,6.17
2018-05-10T22:47:33.487Z,6.10
2018-05-10T23:02:34.666Z,6.43
2018-05-10T23:17:35.385Z,5.93
2018-05-10T23:32:34.394Z,5.97
2018-05-10T23:47:36.886Z,6.60
